createdAt,value
2019-06-01T00:02:09.742Z,19.04
2019-06-01T00:04:40.975Z,19.05
2019-06-01T00:07:12.232Z,19.04
2019-06-01T00:09:43.225Z,19.02
2019-06-01T00:12:14.326Z,18.99
2019-06-01T00:14:48.141Z,18.98
2019-06-01T00:17:19.512Z,18.95
2019-06-01T00:19:50.487Z,18.91
2019-06-01T00:22:21.714Z,18.88
2019-06-01T00:24:52.834Z,18.84
2019-06-01T00:27:23.808Z,18.78
2019-06-01T00:29:54.724Z,18.71
2019-06-01T00:32:25.798Z,18.62
2019-06-01T00:34:57.050Z,18.57
2019-06-01T00:37:27.947Z,18.49
2019-06-01T00:39:59.207Z,18.44
2019-06-01T00:42:30.330Z,18.40
2019-06-01T00:45:01.602Z,18.37
2019-06-01T00:47:32.580Z,18.34
2019-06-01T00:50:04.350Z,18.29
2019-06-01T00:52:35.480Z,18.25
2019-06-01T00:55:07.705Z,18.21
2019-06-01T00:57:38.840Z,18.16
2019-06-01T01:00:10.479Z,18.11
2019-06-01T01:02:41.746Z,18.07
2019-06-01T01:05:18.897Z,18.03
2019-06-01T01:07:51.277Z,17.99
2019-06-01T01:10:23.490Z,17.95
2019-06-01T01:13:05.112Z,17.92
2019-06-01T01:15:37.439Z,17.90
2019-06-01T01:18:10.468Z,17.88
2019-06-01T01:20:41.673Z,17.83
2019-06-01T01:23:12.737Z,17.79
2019-06-01T01:25:43.936Z,17.75
2019-06-01T01:28:16.390Z,17.73
2019-06-01T01:31:02.736Z,17.70
2019-06-01T01:33:20.133Z,17.69
2019-06-01T01:35:52.610Z,17.65
2019-06-01T01:38:24.381Z,17.61
2019-06-01T01:40:56.244Z,17.60
2019-06-01T01:43:27.925Z,17.61
2019-06-01T01:45:59.121Z,17.61
2019-06-01T01:48:30.199Z,17.58
2019-06-01T01:51:01.094Z,17.59
2019-06-01T01:53:32.227Z,17.56
2019-06-01T01:56:03.212Z,17.48
2019-06-01T01:58:34.206Z,17.43
2019-06-01T02:01:21.360Z,17.40
2019-06-01T02:03:38.076Z,17.37
2019-06-01T02:06:09.031Z,17.37
2019-06-01T02:08:39.972Z,17.36
2019-06-01T02:11:11.259Z,17.31
2019-06-01T02:13:42.213Z,17.31
2019-06-01T02:16:13.305Z,17.28
2019-06-01T02:18:44.526Z,17.27
2019-06-01T02:21:15.625Z,17.23
2019-06-01T02:23:46.815Z,17.23
2019-06-01T02:26:17.856Z,17.18
2019-06-01T02:28:49.205Z,17.16
2019-06-01T02:31:37.358Z,17.13
2019-06-01T02:33:53.735Z,17.14
2019-06-01T02:36:25.048Z,17.16
2019-06-01T02:38:56.556Z,17.18
2019-06-01T02:41:28.070Z,17.17
2019-06-01T02:44:01.399Z,17.15
2019-06-01T02:46:35.565Z,17.06
2019-06-01T02:49:06.260Z,17.02
2019-06-01T02:51:37.474Z,16.99
2019-06-01T02:54:08.753Z,16.97
2019-06-01T02:56:39.863Z,16.93
2019-06-01T02:59:11.216Z,16.88
2019-06-01T03:01:56.635Z,16.89
2019-06-01T03:04:17.939Z,16.88
2019-06-01T03:06:53.132Z,16.92
2019-06-01T03:09:27.817Z,16.89
2019-06-01T03:12:04.254Z,16.86
2019-06-01T03:14:37.563Z,16.86
2019-06-01T03:17:12.890Z,16.88
2019-06-01T03:19:48.977Z,16.91
2019-06-01T03:22:23.630Z,16.93
2019-06-01T03:24:58.201Z,16.99
2019-06-01T03:27:33.847Z,17.02
2019-06-01T03:30:12.005Z,17.05
2019-06-01T03:32:41.916Z,17.09
2019-06-01T03:35:13.324Z,17.17
2019-06-01T03:37:44.609Z,17.22
2019-06-01T03:40:23.844Z,17.28
2019-06-01T03:42:48.749Z,17.36
2019-06-01T03:45:19.861Z,17.40
2019-06-01T03:47:50.797Z,17.45
2019-06-01T03:50:21.863Z,17.48
2019-06-01T03:52:52.807Z,17.55
2019-06-01T03:55:23.643Z,17.53
2019-06-01T03:57:54.806Z,17.54
2019-06-01T04:00:25.767Z,17.60
2019-06-01T04:02:56.855Z,17.64
2019-06-01T04:05:28.133Z,17.71
2019-06-01T04:07:59.173Z,17.76
2019-06-01T04:10:31.663Z,17.79
2019-06-01T04:13:03.508Z,17.83
2019-06-01T04:15:35.094Z,17.91
2019-06-01T04:18:06.240Z,17.97
2019-06-01T04:20:37.575Z,18.06
2019-06-01T04:23:08.663Z,18.13
2019-06-01T04:25:39.712Z,18.18
2019-06-01T04:28:12.726Z,18.22
2019-06-01T04:30:43.965Z,18.27
2019-06-01T04:33:15.191Z,18.34
2019-06-01T04:35:47.736Z,18.44
2019-06-01T04:38:18.870Z,18.55
2019-06-01T04:40:50.117Z,18.71
2019-06-01T04:43:21.385Z,18.88
2019-06-01T04:45:52.415Z,19.00
2019-06-01T04:48:23.678Z,19.13
2019-06-01T04:50:54.771Z,19.22
2019-06-01T04:53:25.967Z,19.33
2019-06-01T04:55:57.162Z,19.35
2019-06-01T04:58:28.339Z,19.27
2019-06-01T05:00:59.337Z,19.25
2019-06-01T05:03:30.347Z,19.28
2019-06-01T05:06:01.880Z,19.26
2019-06-01T05:08:32.784Z,19.28
2019-06-01T05:11:05.771Z,19.32
2019-06-01T05:13:36.965Z,19.33
2019-06-01T05:16:08.473Z,19.36
2019-06-01T05:18:39.944Z,19.40
2019-06-01T05:21:10.992Z,19.46
2019-06-01T05:23:43.724Z,19.52
2019-06-01T05:26:15.075Z,19.59
2019-06-01T05:28:46.060Z,19.64
2019-06-01T05:31:24.711Z,19.71
2019-06-01T05:33:50.073Z,19.79
2019-06-01T05:36:21.147Z,19.89
2019-06-01T05:38:52.166Z,19.98
2019-06-01T05:41:23.062Z,20.04
2019-06-01T05:43:54.187Z,20.10
2019-06-01T05:46:25.208Z,20.09
2019-06-01T05:48:56.228Z,20.15
2019-06-01T05:51:27.362Z,20.15
2019-06-01T05:53:58.349Z,20.21
2019-06-01T05:56:29.262Z,20.29
2019-06-01T05:59:00.340Z,20.36
2019-06-01T06:01:31.560Z,20.45
2019-06-01T06:04:02.802Z,20.49
2019-06-01T06:06:33.862Z,20.61
2019-06-01T06:09:08.108Z,20.70
2019-06-01T06:11:39.233Z,20.76
2019-06-01T06:14:11.492Z,20.89
2019-06-01T06:16:42.920Z,20.99
2019-06-01T06:19:16.925Z,21.04
2019-06-01T06:21:46.658Z,21.13
2019-06-01T06:24:18.559Z,21.25
2019-06-01T06:26:49.782Z,21.39
2019-06-01T06:29:20.991Z,21.44
2019-06-01T06:31:52.701Z,21.49
2019-06-01T06:34:23.856Z,21.63
2019-06-01T06:36:54.853Z,21.74
2019-06-01T06:39:25.708Z,21.90
2019-06-01T06:41:57.024Z,21.99
2019-06-01T06:44:28.383Z,22.14
2019-06-01T06:46:59.803Z,22.29
2019-06-01T06:49:30.971Z,22.45
2019-06-01T06:52:02.206Z,22.54
2019-06-01T06:54:34.884Z,22.68
2019-06-01T06:57:07.566Z,22.82
2019-06-01T06:59:38.706Z,22.97
2019-06-01T07:02:09.945Z,23.07
2019-06-01T07:04:41.086Z,23.23
2019-06-01T07:07:12.432Z,23.38
2019-06-01T07:09:43.863Z,23.48
2019-06-01T07:12:15.018Z,23.61
2019-06-01T07:14:46.294Z,23.76
2019-06-01T07:17:17.557Z,23.82
2019-06-01T07:19:48.603Z,23.99
2019-06-01T07:22:19.817Z,24.22
2019-06-01T07:24:51.447Z,24.47
2019-06-01T07:27:24.044Z,24.81
2019-06-01T07:29:55.157Z,25.18
2019-06-01T07:32:26.728Z,25.43
2019-06-01T07:35:00.944Z,25.52
2019-06-01T07:37:32.640Z,25.47
2019-06-01T07:40:04.905Z,25.60
2019-06-01T07:42:36.981Z,25.66
2019-06-01T07:45:09.000Z,25.67
2019-06-01T07:47:39.945Z,26.00
2019-06-01T07:50:11.823Z,26.28
2019-06-01T07:52:43.251Z,26.36
2019-06-01T07:55:14.577Z,26.49
2019-06-01T07:57:46.000Z,26.92
2019-06-01T08:00:18.699Z,26.99
2019-06-01T08:02:49.955Z,26.95
2019-06-01T08:05:23.297Z,26.83
2019-06-01T08:07:54.644Z,27.00
2019-06-01T08:10:26.487Z,27.19
2019-06-01T08:12:58.795Z,27.47
2019-06-01T08:15:30.097Z,27.64
2019-06-01T08:18:01.359Z,27.95
2019-06-01T08:20:32.371Z,28.33
2019-06-01T08:23:03.523Z,28.25
2019-06-01T08:25:35.000Z,28.12
2019-06-01T08:28:06.473Z,28.35
2019-06-01T08:30:37.845Z,28.72
2019-06-01T08:33:09.078Z,28.84
2019-06-01T08:35:40.211Z,28.89
2019-06-01T08:38:11.407Z,29.05
2019-06-01T08:40:42.592Z,29.36
2019-06-01T08:43:13.809Z,29.52
2019-06-01T08:45:45.021Z,29.62
2019-06-01T08:48:16.059Z,29.50
2019-06-01T08:50:47.219Z,29.42
2019-06-01T08:53:18.294Z,29.19
2019-06-01T08:55:49.454Z,28.80
2019-06-01T08:58:20.548Z,28.44
2019-06-01T09:00:51.791Z,28.24
2019-06-01T09:03:22.881Z,28.09
2019-06-01T09:05:54.233Z,27.84
2019-06-01T09:08:26.039Z,27.75
2019-06-01T09:10:58.317Z,28.11
2019-06-01T09:13:29.637Z,28.75
2019-06-01T09:16:00.851Z,29.21
2019-06-01T09:18:31.942Z,29.20
2019-06-01T09:21:03.043Z,28.87
2019-06-01T09:23:34.285Z,28.43
2019-06-01T09:26:05.525Z,28.12
2019-06-01T09:28:36.581Z,28.04
2019-06-01T09:31:07.899Z,28.05
2019-06-01T09:33:39.149Z,28.23
2019-06-01T09:36:10.362Z,28.64
2019-06-01T09:38:41.380Z,28.89
2019-06-01T09:41:12.639Z,28.78
2019-06-01T09:43:43.675Z,28.21
2019-06-01T09:46:14.894Z,27.74
2019-06-01T09:48:45.983Z,27.26
2019-06-01T09:51:17.162Z,26.92
2019-06-01T09:53:48.503Z,26.75
2019-06-01T09:56:19.648Z,26.74
2019-06-01T09:58:50.795Z,26.97
2019-06-01T10:01:21.858Z,27.42
2019-06-01T10:03:53.202Z,28.19
2019-06-01T10:06:24.457Z,28.74
2019-06-01T10:08:55.607Z,29.08
2019-06-01T10:11:28.081Z,29.46
2019-06-01T10:13:59.133Z,29.02
2019-06-01T10:16:30.474Z,28.70
2019-06-01T10:19:01.857Z,28.69
2019-06-01T10:21:33.952Z,29.05
2019-06-01T10:24:05.448Z,29.66
2019-06-01T10:26:37.618Z,30.19
2019-06-01T10:29:08.902Z,30.60
2019-06-01T10:31:41.519Z,30.98
2019-06-01T10:34:13.757Z,31.22
2019-06-01T10:36:45.292Z,30.85
2019-06-01T10:39:19.498Z,30.27
2019-06-01T10:41:49.593Z,29.87
2019-06-01T10:44:20.880Z,29.48
2019-06-01T10:46:52.218Z,29.27
2019-06-01T10:49:24.009Z,29.33
2019-06-01T10:51:55.194Z,29.31
2019-06-01T10:54:26.626Z,29.56
2019-06-01T10:56:57.677Z,29.88
2019-06-01T10:59:29.140Z,30.34
2019-06-01T11:02:00.275Z,30.68
2019-06-01T11:04:33.088Z,30.87
2019-06-01T11:07:04.748Z,31.10
2019-06-01T11:09:36.926Z,31.27
2019-06-01T11:12:08.175Z,31.56
2019-06-01T11:14:39.407Z,32.02
2019-06-01T11:17:10.988Z,32.27
2019-06-01T11:19:43.606Z,32.11
2019-06-01T11:22:14.998Z,32.29
2019-06-01T11:24:46.272Z,32.31
2019-06-01T11:27:17.419Z,32.33
2019-06-01T11:29:51.583Z,32.43
2019-06-01T11:32:21.333Z,32.43
2019-06-01T11:34:52.587Z,32.43
2019-06-01T11:37:23.544Z,32.55
2019-06-01T11:39:55.126Z,32.30
2019-06-01T11:42:26.526Z,31.95
2019-06-01T11:44:57.638Z,31.61
2019-06-01T11:47:29.040Z,31.12
2019-06-01T11:50:00.094Z,30.75
2019-06-01T11:52:31.203Z,30.42
2019-06-01T11:55:02.340Z,29.96
2019-06-01T11:57:33.312Z,29.45
2019-06-01T12:00:13.189Z,28.99
2019-06-01T12:02:45.955Z,28.58
2019-06-01T12:05:17.462Z,28.38
2019-06-01T12:07:48.442Z,28.22
2019-06-01T12:10:20.186Z,28.15
2019-06-01T12:12:51.104Z,27.91
2019-06-01T12:15:25.914Z,27.79
2019-06-01T12:17:55.249Z,27.66
2019-06-01T12:20:28.227Z,27.43
2019-06-01T12:22:59.568Z,27.36
2019-06-01T12:25:30.553Z,27.29
2019-06-01T12:28:01.512Z,27.12
2019-06-01T12:30:32.716Z,26.96
2019-06-01T12:33:04.945Z,26.69
2019-06-01T12:35:37.906Z,26.49
2019-06-01T12:38:09.150Z,26.34
2019-06-01T12:40:41.113Z,26.20
2019-06-01T12:43:12.242Z,26.11
2019-06-01T12:45:43.719Z,26.06
2019-06-01T12:48:15.102Z,25.96
2019-06-01T12:50:49.312Z,25.90
2019-06-01T12:53:19.096Z,25.88
2019-06-01T12:55:50.449Z,25.84
2019-06-01T12:58:21.796Z,25.82
2019-06-01T13:00:53.023Z,25.86
2019-06-01T13:03:23.959Z,25.91
2019-06-01T13:05:55.153Z,25.98
2019-06-01T13:08:26.334Z,26.05
2019-06-01T13:10:57.610Z,26.10
2019-06-01T13:13:28.802Z,26.21
2019-06-01T13:16:00.455Z,26.34
2019-06-01T13:18:31.663Z,26.44
2019-06-01T13:21:03.094Z,26.59
2019-06-01T13:23:34.191Z,26.71
2019-06-01T13:26:05.409Z,26.94
2019-06-01T13:28:38.361Z,27.10
2019-06-01T13:31:09.390Z,27.32
2019-06-01T13:33:40.689Z,27.56
2019-06-01T13:36:11.673Z,27.71
2019-06-01T13:38:42.791Z,27.93
2019-06-01T13:41:13.821Z,28.17
2019-06-01T13:43:45.259Z,28.37
2019-06-01T13:46:16.417Z,28.68
2019-06-01T13:48:47.670Z,29.00
2019-06-01T13:51:19.428Z,29.28
2019-06-01T13:53:50.569Z,29.55
2019-06-01T13:56:21.587Z,29.80
2019-06-01T13:58:52.781Z,30.06
2019-06-01T14:01:23.867Z,30.28
2019-06-01T14:03:55.741Z,30.43
2019-06-01T14:06:26.993Z,30.50
2019-06-01T14:08:58.417Z,30.44
2019-06-01T14:11:29.453Z,30.31
2019-06-01T14:14:00.598Z,30.24
2019-06-01T14:16:32.031Z,30.29
2019-06-01T14:19:06.742Z,30.37
2019-06-01T14:21:36.045Z,30.45
2019-06-01T14:24:07.427Z,30.51
2019-06-01T14:26:38.539Z,30.43
2019-06-01T14:29:09.745Z,30.39
2019-06-01T14:31:41.031Z,30.17
2019-06-01T14:34:12.045Z,30.07
2019-06-01T14:36:43.267Z,30.05
2019-06-01T14:39:14.469Z,29.88
2019-06-01T14:41:46.717Z,29.87
2019-06-01T14:44:17.777Z,29.84
2019-06-01T14:46:55.145Z,29.72
2019-06-01T14:49:21.905Z,29.58
2019-06-01T14:51:53.684Z,29.49
2019-06-01T14:54:24.934Z,29.40
2019-06-01T14:56:56.317Z,29.31
2019-06-01T14:59:27.426Z,29.27
2019-06-01T15:01:58.763Z,29.17
2019-06-01T15:04:29.995Z,29.14
2019-06-01T15:07:01.028Z,29.09
2019-06-01T15:09:32.337Z,29.06
2019-06-01T15:12:03.520Z,28.93
2019-06-01T15:14:34.790Z,28.76
2019-06-01T15:17:06.582Z,28.48
2019-06-01T15:19:37.783Z,28.49
2019-06-01T15:22:09.214Z,28.31
2019-06-01T15:24:40.253Z,28.27
2019-06-01T15:27:11.863Z,28.25
2019-06-01T15:29:42.957Z,28.14
2019-06-01T15:32:14.091Z,28.10
2019-06-01T15:34:45.152Z,28.08
2019-06-01T15:37:16.238Z,27.97
2019-06-01T15:39:47.490Z,27.97
2019-06-01T15:42:18.730Z,27.93
2019-06-01T15:44:50.946Z,27.83
2019-06-01T15:47:22.137Z,27.81
2019-06-01T15:49:53.584Z,27.82
2019-06-01T15:52:24.684Z,27.85
2019-06-01T15:54:56.160Z,27.84
2019-06-01T15:57:27.514Z,27.83
2019-06-01T15:59:58.669Z,27.85
2019-06-01T16:02:29.772Z,27.76
2019-06-01T16:05:01.455Z,27.85
2019-06-01T16:07:32.905Z,27.86
2019-06-01T16:10:08.206Z,27.72
2019-06-01T16:12:39.266Z,27.74
2019-06-01T16:15:12.419Z,27.69
2019-06-01T16:17:43.374Z,27.60
2019-06-01T16:20:15.094Z,27.59
2019-06-01T16:22:46.193Z,27.63
2019-06-01T16:25:17.334Z,27.69
2019-06-01T16:27:48.678Z,27.71
2019-06-01T16:30:20.165Z,27.68
2019-06-01T16:32:51.580Z,27.64
2019-06-01T16:35:22.744Z,27.59
2019-06-01T16:37:54.964Z,27.52
2019-06-01T16:40:26.222Z,27.40
2019-06-01T16:42:57.452Z,27.35
2019-06-01T16:45:28.712Z,27.20
2019-06-01T16:47:59.934Z,27.03
2019-06-01T16:50:31.432Z,26.87
2019-06-01T16:53:02.454Z,26.92
2019-06-01T16:55:33.669Z,26.76
2019-06-01T16:58:06.591Z,26.61
2019-06-01T17:00:38.068Z,26.49
2019-06-01T17:03:11.311Z,26.34
2019-06-01T17:05:42.140Z,26.18
2019-06-01T17:08:13.270Z,26.04
2019-06-01T17:10:44.502Z,25.98
2019-06-01T17:13:15.939Z,25.80
2019-06-01T17:15:52.425Z,25.68
2019-06-01T17:18:23.467Z,25.53
2019-06-01T17:20:56.893Z,25.45
2019-06-01T17:23:32.087Z,25.36
2019-06-01T17:26:03.969Z,25.23
2019-06-01T17:28:36.121Z,25.14
2019-06-01T17:31:08.345Z,25.08
2019-06-01T17:33:39.653Z,25.04
2019-06-01T17:36:11.170Z,25.05
2019-06-01T17:38:42.388Z,24.99
2019-06-01T17:41:13.840Z,24.97
2019-06-01T17:43:45.217Z,24.96
2019-06-01T17:46:16.787Z,24.91
2019-06-01T17:48:47.894Z,24.86
2019-06-01T17:51:19.437Z,24.79
2019-06-01T17:53:53.277Z,24.75
2019-06-01T17:56:23.472Z,24.71
2019-06-01T17:58:54.716Z,24.69
2019-06-01T18:01:28.465Z,24.66
2019-06-01T18:03:59.967Z,24.58
2019-06-01T18:06:31.358Z,24.53
2019-06-01T18:09:03.832Z,24.42
2019-06-01T18:11:35.152Z,24.33
2019-06-01T18:14:08.581Z,24.27
2019-06-01T18:16:39.655Z,24.19
2019-06-01T18:19:10.964Z,24.20
2019-06-01T18:21:42.153Z,24.15
2019-06-01T18:24:13.618Z,24.13
2019-06-01T18:26:44.754Z,24.03
2019-06-01T18:29:15.983Z,23.97
2019-06-01T18:31:47.162Z,23.89
2019-06-01T18:34:18.601Z,23.77
2019-06-01T18:36:50.171Z,23.71
2019-06-01T18:39:21.773Z,23.69
2019-06-01T18:41:52.998Z,23.66
2019-06-01T18:44:24.967Z,23.58
2019-06-01T18:46:56.971Z,23.51
2019-06-01T18:49:28.811Z,23.44
2019-06-01T18:52:00.077Z,23.40
2019-06-01T18:54:31.286Z,23.37
2019-06-01T18:57:13.458Z,23.35
2019-06-01T18:59:35.581Z,23.32
2019-06-01T19:02:06.783Z,23.29
2019-06-01T19:04:37.834Z,23.27
2019-06-01T19:07:09.210Z,23.26
2019-06-01T19:09:40.583Z,23.26
2019-06-01T19:12:11.643Z,23.22
2019-06-01T19:14:42.969Z,23.22
2019-06-01T19:17:14.438Z,23.18
2019-06-01T19:19:46.095Z,23.18
2019-06-01T19:22:17.245Z,23.15
2019-06-01T19:24:48.207Z,23.14
2019-06-01T19:27:19.472Z,23.09
2019-06-01T19:29:50.547Z,23.05
2019-06-01T19:32:21.948Z,22.98
2019-06-01T19:34:53.325Z,22.96
2019-06-01T19:37:25.795Z,22.94
2019-06-01T19:39:57.078Z,22.90
2019-06-01T19:42:28.268Z,22.85
2019-06-01T19:44:59.509Z,22.83
2019-06-01T19:47:30.700Z,22.80
2019-06-01T19:50:01.782Z,22.78
2019-06-01T19:52:33.111Z,22.73
2019-06-01T19:55:06.378Z,22.70
2019-06-01T19:57:37.832Z,22.65
2019-06-01T20:00:10.131Z,22.61
2019-06-01T20:02:41.826Z,22.59
2019-06-01T20:05:14.578Z,22.59
2019-06-01T20:07:45.821Z,22.55
2019-06-01T20:10:18.407Z,22.54
2019-06-01T20:12:50.261Z,22.51
2019-06-01T20:15:21.574Z,22.49
2019-06-01T20:17:52.956Z,22.45
2019-06-01T20:20:34.324Z,22.43
2019-06-01T20:23:05.431Z,22.38
2019-06-01T20:25:36.504Z,22.34
2019-06-01T20:28:07.643Z,22.28
2019-06-01T20:30:38.804Z,22.25
2019-06-01T20:33:11.893Z,22.21
2019-06-01T20:35:43.055Z,22.18
2019-06-01T20:38:14.425Z,22.13
2019-06-01T20:40:45.840Z,22.10
2019-06-01T20:43:17.120Z,22.07
2019-06-01T20:45:49.623Z,22.04
2019-06-01T20:48:20.990Z,22.02
2019-06-01T20:50:52.477Z,22.02
2019-06-01T20:53:23.718Z,22.00
2019-06-01T20:55:54.896Z,21.97
2019-06-01T20:58:25.940Z,21.94
2019-06-01T21:00:57.402Z,21.92
2019-06-01T21:03:28.706Z,21.92
2019-06-01T21:05:59.854Z,21.88
2019-06-01T21:08:31.336Z,21.87
2019-06-01T21:11:02.454Z,21.85
2019-06-01T21:13:33.594Z,21.82
2019-06-01T21:16:04.736Z,21.79
2019-06-01T21:18:35.777Z,21.74
2019-06-01T21:21:07.188Z,21.71
2019-06-01T21:23:38.525Z,21.70
2019-06-01T21:26:09.668Z,21.71
2019-06-01T21:28:40.700Z,21.70
2019-06-01T21:31:12.024Z,21.70
2019-06-01T21:33:43.171Z,21.70
2019-06-01T21:36:15.241Z,21.71
2019-06-01T21:38:46.447Z,21.68
2019-06-01T21:41:17.583Z,21.66
2019-06-01T21:43:48.946Z,21.62
2019-06-01T21:46:20.113Z,21.57
2019-06-01T21:48:51.291Z,21.49
2019-06-01T21:51:23.897Z,21.42
2019-06-01T21:53:56.294Z,21.36
2019-06-01T21:56:27.864Z,21.31
2019-06-01T21:59:00.502Z,21.27
2019-06-01T22:01:32.005Z,21.19
2019-06-01T22:04:03.200Z,21.15
2019-06-01T22:06:34.906Z,21.12
2019-06-01T22:09:08.063Z,21.09
2019-06-01T22:11:39.140Z,21.05
2019-06-01T22:14:10.340Z,21.01
2019-06-01T22:16:41.523Z,20.99
2019-06-01T22:19:12.734Z,20.95
2019-06-01T22:21:43.898Z,20.93
2019-06-01T22:24:14.980Z,20.89
2019-06-01T22:26:45.904Z,20.85
2019-06-01T22:29:18.159Z,20.80
2019-06-01T22:31:49.500Z,20.74
2019-06-01T22:34:20.852Z,20.68
2019-06-01T22:36:51.918Z,20.64
2019-06-01T22:39:23.659Z,20.61
2019-06-01T22:41:55.720Z,20.60
2019-06-01T22:44:26.868Z,20.58
2019-06-01T22:46:58.120Z,20.58
2019-06-01T22:49:29.726Z,20.55
2019-06-01T22:52:01.128Z,20.51
2019-06-01T22:54:32.410Z,20.48
2019-06-01T22:57:03.470Z,20.45
2019-06-01T22:59:34.558Z,20.41
2019-06-01T23:02:05.738Z,20.38
2019-06-01T23:04:36.792Z,20.36
2019-06-01T23:07:07.828Z,20.36
2019-06-01T23:09:38.985Z,20.33
2019-06-01T23:12:10.082Z,20.29
2019-06-01T23:14:41.171Z,20.25
2019-06-01T23:17:12.463Z,20.23
2019-06-01T23:19:43.662Z,20.22
2019-06-01T23:22:14.644Z,20.20
2019-06-01T23:24:45.832Z,20.17
2019-06-01T23:27:17.030Z,20.16
2019-06-01T23:29:48.032Z,20.11
2019-06-01T23:32:19.299Z,20.07
2019-06-01T23:34:50.313Z,20.05
2019-06-01T23:37:22.620Z,20.03
2019-06-01T23:39:53.856Z,19.99
2019-06-01T23:42:24.987Z,20.00
2019-06-01T23:44:56.108Z,19.97
2019-06-01T23:47:27.453Z,19.96
2019-06-01T23:49:58.823Z,19.96
2019-06-01T23:52:29.910Z,19.96
2019-06-01T23:55:01.197Z,19.98
2019-06-01T23:57:32.647Z,19.97
